createdAt,value
2017-08-24T00:00:48.836Z,-4.09
2017-08-24T00:01:42.856Z,-4.09
2017-08-24T00:02:42.836Z,-4.09
2017-08-24T00:03:37.804Z,-4.09
2017-08-24T00:04:32.909Z,-4.09
2017-08-24T00:05:32.924Z,-4.09
2017-08-24T00:06:27.778Z,-4.09
2017-08-24T00:07:22.981Z,-4.09
2017-08-24T00:08:24.206Z,-4.09
2017-08-24T00:09:24.051Z,-4.09
2017-08-24T00:10:24.159Z,-4.09
2017-08-24T00:11:19.120Z,-4.09
2017-08-24T00:12:13.187Z,-4.09
2017-08-24T00:13:13.282Z,-4.08
2017-08-24T00:14:08.293Z,-4.08
2017-08-24T00:15:08.417Z,-4.08
2017-08-24T00:16:02.445Z,-4.08
2017-08-24T00:17:02.451Z,-4.08
2017-08-24T00:17:57.434Z,-4.09
2017-08-24T00:18:52.609Z,-4.09
2017-08-24T00:19:52.689Z,-4.09
2017-08-24T00:20:47.547Z,-4.08
2017-08-24T00:21:42.516Z,-4.08
2017-08-24T00:22:43.347Z,-4.08
2017-08-24T00:23:43.400Z,-4.09
2017-08-24T00:24:38.432Z,-4.09
2017-08-24T00:25:38.862Z,-4.09
2017-08-24T00:26:32.813Z,-4.08
2017-08-24T00:27:27.924Z,-4.08
2017-08-24T00:28:28.814Z,-4.08
2017-08-24T00:29:22.954Z,-4.09
2017-08-24T00:30:22.932Z,-4.09
2017-08-24T00:31:12.079Z,-4.09
2017-08-24T00:32:00.075Z,-4.09
2017-08-24T00:32:49.120Z,-4.09
2017-08-24T00:33:37.167Z,-4.09
2017-08-24T00:34:26.256Z,-4.09
2017-08-24T00:35:21.332Z,-4.08
2017-08-24T00:36:15.341Z,-4.08
2017-08-24T00:37:03.291Z,-4.08
2017-08-24T00:37:51.374Z,-4.08
2017-08-24T00:38:39.405Z,-4.08
2017-08-24T00:39:40.454Z,-4.08
2017-08-24T00:40:40.519Z,-4.08
2017-08-24T00:41:40.579Z,-4.08
2017-08-24T00:42:34.511Z,-4.08
2017-08-24T00:43:35.599Z,-4.08
2017-08-24T00:44:30.658Z,-4.08
2017-08-24T00:45:30.587Z,-4.08
2017-08-24T00:46:30.725Z,-4.08
2017-08-24T00:47:24.739Z,-4.08
2017-08-24T00:48:18.690Z,-4.08
2017-08-24T00:49:12.852Z,-4.08
2017-08-24T00:50:07.824Z,-4.08
2017-08-24T00:50:55.946Z,-4.08
2017-08-24T00:51:44.949Z,-4.08
2017-08-24T00:52:39.952Z,-4.08
2017-08-24T00:53:28.087Z,-4.08
2017-08-24T00:54:22.046Z,-4.08
2017-08-24T00:55:16.112Z,-4.08
2017-08-24T00:56:17.172Z,-4.08
2017-08-24T00:57:11.196Z,-4.08
2017-08-24T00:58:11.271Z,-4.08
2017-08-24T00:59:05.334Z,-4.08
2017-08-24T00:59:59.331Z,-4.08
2017-08-24T01:00:47.402Z,-4.08
2017-08-24T01:01:36.436Z,-4.08
2017-08-24T01:02:31.480Z,-4.08
2017-08-24T01:03:19.523Z,-4.08
2017-08-24T01:04:13.557Z,-4.08
2017-08-24T01:05:07.497Z,-4.08
2017-08-24T01:06:01.640Z,-4.08
2017-08-24T01:06:55.750Z,-4.08
2017-08-24T01:07:49.674Z,-4.08
2017-08-24T01:08:50.786Z,-4.08
2017-08-24T01:09:50.761Z,-4.08
2017-08-24T01:10:50.958Z,-4.08
2017-08-24T01:11:38.943Z,-4.08
2017-08-24T01:12:32.921Z,-4.08
2017-08-24T01:13:26.998Z,-4.08
2017-08-24T01:14:27.073Z,-4.08
2017-08-24T01:15:22.090Z,-4.08
2017-08-24T01:16:11.147Z,-4.08
2017-08-24T01:17:06.179Z,-4.08
2017-08-24T01:17:55.167Z,-4.08
2017-08-24T01:18:43.230Z,-4.08
2017-08-24T01:19:37.179Z,-4.08
2017-08-24T01:20:37.426Z,-4.08
2017-08-24T01:21:32.448Z,-4.08
2017-08-24T01:22:32.346Z,-4.07
2017-08-24T01:23:26.377Z,-4.07
2017-08-24T01:24:21.394Z,-4.07
2017-08-24T01:25:15.542Z,-4.07
2017-08-24T01:26:16.539Z,-4.07
2017-08-24T01:27:17.564Z,-4.07
2017-08-24T01:28:11.577Z,-4.07
2017-08-24T01:29:05.606Z,-4.07
2017-08-24T01:30:00.715Z,-4.07
2017-08-24T01:30:54.726Z,-4.07
2017-08-24T01:31:43.813Z,-4.07
2017-08-24T01:32:37.811Z,-4.07
2017-08-24T01:33:37.857Z,-4.07
2017-08-24T01:34:26.852Z,-4.07
2017-08-24T01:35:15.972Z,-4.07
2017-08-24T01:36:09.935Z,-4.07
2017-08-24T01:37:04.994Z,-4.07
2017-08-24T01:37:54.163Z,-4.07
2017-08-24T01:38:48.154Z,-4.07
2017-08-24T01:39:42.097Z,-4.07
2017-08-24T01:40:35.779Z,-4.07
2017-08-24T01:41:25.324Z,-4.07
2017-08-24T01:42:19.316Z,-4.07
2017-08-24T01:43:13.361Z,-4.07
2017-08-24T01:44:07.378Z,-4.06
2017-08-24T01:45:08.341Z,-4.06
2017-08-24T01:46:02.523Z,-4.06
2017-08-24T01:46:56.460Z,-4.06
2017-08-24T01:47:51.516Z,-4.06
2017-08-24T01:48:40.637Z,-4.06
2017-08-24T01:49:28.586Z,-4.06
2017-08-24T01:50:28.755Z,-4.06
2017-08-24T01:51:16.784Z,-4.06
2017-08-24T01:52:11.775Z,-4.06
2017-08-24T01:53:06.754Z,-4.06
2017-08-24T01:54:00.834Z,-4.06
2017-08-24T01:54:49.836Z,-4.06
2017-08-24T01:55:38.867Z,-4.06
2017-08-24T01:56:32.935Z,-4.06
2017-08-24T01:57:20.917Z,-4.06
2017-08-24T01:58:14.958Z,-4.06
2017-08-24T01:59:15.093Z,-4.06
2017-08-24T02:00:03.052Z,-4.06
2017-08-24T02:00:58.091Z,-4.06
2017-08-24T02:01:47.196Z,-4.06
2017-08-24T02:02:47.232Z,-4.06
2017-08-24T02:03:35.268Z,-4.06
2017-08-24T02:04:29.367Z,-4.06
2017-08-24T02:05:23.327Z,-4.06
2017-08-24T02:06:23.377Z,-4.06
2017-08-24T02:07:23.423Z,-4.06
2017-08-24T02:08:18.518Z,-4.06
2017-08-24T02:09:12.446Z,-4.06
2017-08-24T02:10:12.591Z,-4.06
2017-08-24T02:11:00.587Z,-4.06
2017-08-24T02:11:48.629Z,-4.06
2017-08-24T02:12:36.656Z,-4.06
2017-08-24T02:13:24.689Z,-4.06
2017-08-24T02:14:18.654Z,-4.06
2017-08-24T02:15:12.743Z,-4.06
2017-08-24T02:16:07.793Z,-4.06
2017-08-24T02:17:01.828Z,-4.06
2017-08-24T02:17:50.836Z,-4.06
2017-08-24T02:18:45.975Z,-4.05
2017-08-24T02:19:41.017Z,-4.05
2017-08-24T02:20:40.963Z,-4.05
2017-08-24T02:21:40.932Z,-4.05
2017-08-24T02:22:34.974Z,-4.05
2017-08-24T02:23:35.069Z,-4.05
2017-08-24T02:24:29.139Z,-4.05
2017-08-24T02:25:30.162Z,-4.05
2017-08-24T02:26:25.007Z,-4.05
2017-08-24T02:27:19.235Z,-4.05
2017-08-24T02:28:13.123Z,-4.05
2017-08-24T02:29:02.125Z,-4.05
2017-08-24T02:29:56.201Z,-4.05
2017-08-24T02:30:51.469Z,-4.05
2017-08-24T02:31:39.536Z,-4.05
2017-08-24T02:32:28.495Z,-4.05
2017-08-24T02:33:17.283Z,-4.05
2017-08-24T02:34:05.552Z,-4.05
2017-08-24T02:34:59.733Z,-4.05
2017-08-24T02:35:53.828Z,-4.05
2017-08-24T02:36:47.559Z,-4.05
2017-08-24T02:37:35.897Z,-4.05
2017-08-24T02:38:24.838Z,-4.05
2017-08-24T02:39:12.896Z,-4.05
2017-08-24T02:40:00.820Z,-4.05
2017-08-24T02:40:49.108Z,-4.05
2017-08-24T02:41:48.737Z,-4.05
2017-08-24T02:42:43.840Z,-4.05
2017-08-24T02:43:44.175Z,-4.05
2017-08-24T02:44:32.880Z,-4.05
2017-08-24T02:45:22.282Z,-4.05
2017-08-24T02:46:16.985Z,-4.05
2017-08-24T02:47:11.201Z,-4.05
2017-08-24T02:47:59.327Z,-4.05
2017-08-24T02:48:48.358Z,-4.06
2017-08-24T02:49:43.412Z,-4.06
2017-08-24T02:50:37.614Z,-4.06
2017-08-24T02:51:37.628Z,-4.06
2017-08-24T02:52:38.587Z,-4.06
2017-08-24T02:53:32.583Z,-4.06
2017-08-24T02:54:32.567Z,-4.06
2017-08-24T02:55:27.674Z,-4.06
2017-08-24T02:56:22.740Z,-4.06
2017-08-24T02:57:23.784Z,-4.06
2017-08-24T02:58:18.805Z,-4.06
2017-08-24T02:59:07.810Z,-4.06
2017-08-24T02:59:55.991Z,-4.06
2017-08-24T03:00:49.948Z,-4.06
2017-08-24T03:01:44.989Z,-4.06
2017-08-24T03:02:39.060Z,-4.06
2017-08-24T03:03:33.077Z,-4.06
2017-08-24T03:04:28.171Z,-4.06
2017-08-24T03:05:28.120Z,-4.06
2017-08-24T03:06:22.182Z,-4.06
2017-08-24T03:07:22.271Z,-4.06
2017-08-24T03:08:16.200Z,-4.06
2017-08-24T03:09:10.369Z,-4.06
2017-08-24T03:10:04.370Z,-4.06
2017-08-24T03:10:58.375Z,-4.06
2017-08-24T03:11:58.464Z,-4.06
2017-08-24T03:12:53.471Z,-4.06
2017-08-24T03:13:41.557Z,-4.06
2017-08-24T03:14:35.538Z,-4.06
2017-08-24T03:15:29.582Z,-4.06
2017-08-24T03:16:23.652Z,-4.06
2017-08-24T03:17:11.651Z,-4.06
2017-08-24T03:18:05.693Z,-4.06
2017-08-24T03:19:00.689Z,-4.06
2017-08-24T03:20:00.848Z,-4.06
2017-08-24T03:20:54.834Z,-4.06
2017-08-24T03:21:54.931Z,-4.06
2017-08-24T03:22:42.903Z,-4.06
2017-08-24T03:23:31.970Z,-4.06
2017-08-24T03:24:21.145Z,-4.06
2017-08-24T03:25:10.027Z,-4.06
2017-08-24T03:26:04.149Z,-4.06
2017-08-24T03:26:53.172Z,-4.06
2017-08-24T03:27:47.215Z,-4.06
2017-08-24T03:28:36.324Z,-4.06
2017-08-24T03:29:25.360Z,-4.06
2017-08-24T03:30:20.298Z,-4.06
2017-08-24T03:31:14.559Z,-4.06
2017-08-24T03:32:15.445Z,-4.06
2017-08-24T03:33:10.390Z,-4.06
2017-08-24T03:34:10.523Z,-4.06
2017-08-24T03:35:04.631Z,-4.06
2017-08-24T03:35:53.556Z,-4.06
2017-08-24T03:36:41.667Z,-4.06
2017-08-24T03:37:29.630Z,-4.06
2017-08-24T03:38:23.827Z,-4.06
2017-08-24T03:39:23.840Z,-4.06
2017-08-24T03:40:11.827Z,-4.06
2017-08-24T03:40:59.952Z,-4.06
2017-08-24T03:41:47.889Z,-4.06
2017-08-24T03:42:42.958Z,-4.06
2017-08-24T03:43:32.054Z,-4.06
2017-08-24T03:44:21.089Z,-4.06
2017-08-24T03:45:10.193Z,-4.06
2017-08-24T03:46:04.142Z,-4.06
2017-08-24T03:46:52.116Z,-4.06
2017-08-24T03:47:53.205Z,-4.06
2017-08-24T03:48:42.255Z,-4.06
2017-08-24T03:49:36.278Z,-4.06
2017-08-24T03:50:31.344Z,-4.06
2017-08-24T03:51:31.287Z,-4.06
2017-08-24T03:52:31.452Z,-4.06
2017-08-24T03:53:25.396Z,-4.06
2017-08-24T03:54:25.111Z,-4.06
2017-08-24T03:55:13.231Z,-4.06
2017-08-24T03:56:07.737Z,-4.06
2017-08-24T03:57:02.505Z,-4.06
2017-08-24T03:57:51.519Z,-4.06
2017-08-24T03:58:40.699Z,-4.06
2017-08-24T03:59:34.605Z,-4.06
2017-08-24T04:00:29.772Z,-4.06
2017-08-24T04:01:23.817Z,-4.06
2017-08-24T04:02:23.798Z,-4.06
2017-08-24T04:03:12.817Z,-4.06
2017-08-24T04:04:01.821Z,-4.06
2017-08-24T04:04:50.978Z,-4.06
2017-08-24T04:05:38.977Z,-4.06
2017-08-24T04:06:27.743Z,-4.06
2017-08-24T04:07:16.941Z,-4.06
2017-08-24T04:08:10.922Z,-4.06
2017-08-24T04:08:59.874Z,-4.06
2017-08-24T04:09:48.867Z,-4.06
2017-08-24T04:10:42.984Z,-4.06
2017-08-24T04:11:43.308Z,-4.06
2017-08-24T04:12:44.023Z,-4.06
2017-08-24T04:13:38.376Z,-4.06
2017-08-24T04:14:32.177Z,-4.06
2017-08-24T04:15:21.152Z,-4.06
2017-08-24T04:16:15.119Z,-4.06
2017-08-24T04:17:09.329Z,-4.06
2017-08-24T04:17:58.285Z,-4.06
2017-08-24T04:18:46.315Z,-4.06
2017-08-24T04:19:47.366Z,-4.06
2017-08-24T04:20:36.666Z,-4.06
2017-08-24T04:21:30.390Z,-4.06
2017-08-24T04:22:24.733Z,-4.06
2017-08-24T04:23:19.720Z,-4.06
2017-08-24T04:24:19.943Z,-4.06
2017-08-24T04:25:08.854Z,-4.06
2017-08-24T04:26:02.980Z,-4.06
2017-08-24T04:26:51.034Z,-4.06
2017-08-24T04:27:45.104Z,-4.06
2017-08-24T04:28:45.081Z,-4.06
2017-08-24T04:29:39.098Z,-4.06
2017-08-24T04:30:27.196Z,-4.06
2017-08-24T04:31:21.051Z,-4.06
2017-08-24T04:32:15.010Z,-4.06
2017-08-24T04:33:04.020Z,-4.06
2017-08-24T04:33:53.319Z,-4.06
2017-08-24T04:34:47.082Z,-4.06
2017-08-24T04:35:36.306Z,-4.06
2017-08-24T04:36:31.422Z,-4.06
2017-08-24T04:37:20.491Z,-4.06
2017-08-24T04:38:14.297Z,-4.06
2017-08-24T04:39:08.308Z,-4.06
2017-08-24T04:40:03.432Z,-4.06
2017-08-24T04:40:51.727Z,-4.06
2017-08-24T04:41:40.437Z,-4.06
2017-08-24T04:42:34.498Z,-4.06
2017-08-24T04:43:29.568Z,-4.06
2017-08-24T04:44:17.661Z,-4.06
2017-08-24T04:45:11.695Z,-4.06
2017-08-24T04:46:05.699Z,-4.06
2017-08-24T04:46:59.631Z,-4.06
2017-08-24T04:47:53.689Z,-4.06
2017-08-24T04:48:42.842Z,-4.06
2017-08-24T04:49:31.910Z,-4.07
2017-08-24T04:50:26.267Z,-4.07
2017-08-24T04:51:14.878Z,-4.07
2017-08-24T04:52:09.987Z,-4.07
2017-08-24T04:53:04.039Z,-4.07
2017-08-24T04:53:53.164Z,-4.07
2017-08-24T04:54:48.075Z,-4.07
2017-08-24T04:55:48.119Z,-4.07
2017-08-24T04:56:42.260Z,-4.07
2017-08-24T04:57:42.227Z,-4.07
2017-08-24T04:58:36.247Z,-4.07
2017-08-24T04:59:36.321Z,-4.07
2017-08-24T05:00:31.609Z,-4.07
2017-08-24T05:01:19.466Z,-4.07
2017-08-24T05:02:13.416Z,-4.07
2017-08-24T05:03:07.533Z,-4.07
2017-08-24T05:04:02.526Z,-4.07
2017-08-24T05:05:02.752Z,-4.07
2017-08-24T05:05:56.636Z,-4.07
2017-08-24T05:06:45.641Z,-4.07
2017-08-24T05:07:45.649Z,-4.07
2017-08-24T05:08:39.676Z,-4.07
2017-08-24T05:09:40.749Z,-4.07
2017-08-24T05:10:30.170Z,-4.07
2017-08-24T05:11:25.058Z,-4.07
2017-08-24T05:12:18.880Z,-4.07
2017-08-24T05:13:06.911Z,-4.07
2017-08-24T05:14:02.257Z,-4.07
2017-08-24T05:15:01.973Z,-4.07
2017-08-24T05:15:57.612Z,-4.07
2017-08-24T05:16:58.155Z,-4.07
2017-08-24T05:17:46.433Z,-4.07
2017-08-24T05:18:35.260Z,-4.07
2017-08-24T05:19:30.263Z,-4.07
2017-08-24T05:20:18.277Z,-4.07
2017-08-24T05:21:18.307Z,-4.07
2017-08-24T05:22:12.619Z,-4.07
2017-08-24T05:23:00.407Z,-4.07
2017-08-24T05:23:54.440Z,-4.07
2017-08-24T05:24:48.623Z,-4.07
2017-08-24T05:25:43.490Z,-4.07
2017-08-24T05:26:38.533Z,-4.07
2017-08-24T05:27:33.583Z,-4.07
2017-08-24T05:28:27.593Z,-4.07
2017-08-24T05:29:21.744Z,-4.07
2017-08-24T05:30:15.745Z,-4.07
2017-08-24T05:31:10.758Z,-4.07
2017-08-24T05:31:59.882Z,-4.07
2017-08-24T05:32:54.835Z,-4.07
2017-08-24T05:33:43.954Z,-4.07
2017-08-24T05:34:32.998Z,-4.07
2017-08-24T05:35:27.414Z,-4.07
2017-08-24T05:36:26.982Z,-4.07
2017-08-24T05:37:27.109Z,-4.07
2017-08-24T05:38:27.338Z,-4.07
2017-08-24T05:39:21.269Z,-4.07
2017-08-24T05:40:09.229Z,-4.07
2017-08-24T05:40:58.271Z,-4.07
2017-08-24T05:41:52.250Z,-4.07
2017-08-24T05:42:46.412Z,-4.07
2017-08-24T05:43:40.698Z,-4.07
2017-08-24T05:44:40.405Z,-4.07
2017-08-24T05:45:30.045Z,-4.07
2017-08-24T05:46:17.520Z,-4.07
2017-08-24T05:47:11.555Z,-4.07
2017-08-24T05:48:00.671Z,-4.07
2017-08-24T05:48:49.581Z,-4.07
2017-08-24T05:49:43.722Z,-4.07
2017-08-24T05:50:32.110Z,-4.07
2017-08-24T05:51:20.090Z,-4.07
2017-08-24T05:52:14.812Z,-4.07
2017-08-24T05:53:02.934Z,-4.07
2017-08-24T05:53:57.188Z,-4.07
2017-08-24T05:54:51.268Z,-4.07
2017-08-24T05:55:46.297Z,-4.07
2017-08-24T05:56:35.099Z,-4.07
2017-08-24T05:57:23.110Z,-4.07
2017-08-24T05:58:12.540Z,-4.07
2017-08-24T05:59:01.309Z,-4.07
2017-08-24T05:59:49.305Z,-4.07
2017-08-24T06:00:38.313Z,-4.07
2017-08-24T06:01:27.299Z,-4.07
2017-08-24T06:02:16.677Z,-4.07
2017-08-24T06:03:10.697Z,-4.07
2017-08-24T06:04:04.490Z,-4.07
2017-08-24T06:04:53.564Z,-4.07
2017-08-24T06:05:42.559Z,-4.07
2017-08-24T06:06:36.596Z,-4.07
2017-08-24T06:07:38.053Z,-4.07
2017-08-24T06:08:31.664Z,-4.07
2017-08-24T06:09:25.741Z,-4.07
2017-08-24T06:10:20.840Z,-4.07
2017-08-24T06:11:10.143Z,-4.07
2017-08-24T06:12:04.121Z,-4.07
2017-08-24T06:12:53.014Z,-4.07
2017-08-24T06:13:47.019Z,-4.07
2017-08-24T06:14:36.117Z,-4.07
2017-08-24T06:15:25.117Z,-4.07
2017-08-24T06:16:20.406Z,-4.07
2017-08-24T06:17:15.356Z,-4.07
2017-08-24T06:18:04.509Z,-4.07
2017-08-24T06:18:59.418Z,-4.07
2017-08-24T06:19:54.553Z,-4.07
2017-08-24T06:20:48.671Z,-4.07
2017-08-24T06:21:37.671Z,-4.07
2017-08-24T06:22:32.763Z,-4.07
2017-08-24T06:23:26.801Z,-4.07
2017-08-24T06:24:21.893Z,-4.07
2017-08-24T06:25:21.806Z,-4.07
2017-08-24T06:26:10.959Z,-4.07
2017-08-24T06:27:05.823Z,-4.07
2017-08-24T06:28:05.864Z,-4.07
2017-08-24T06:28:54.995Z,-4.07
2017-08-24T06:29:49.061Z,-4.07
2017-08-24T06:30:43.829Z,-4.07
2017-08-24T06:31:39.191Z,-4.07
2017-08-24T06:32:32.986Z,-4.07
2017-08-24T06:33:21.884Z,-4.07
2017-08-24T06:34:16.311Z,-4.07
2017-08-24T06:35:11.085Z,-4.08
2017-08-24T06:36:00.413Z,-4.07
2017-08-24T06:36:49.631Z,-4.07
2017-08-24T06:37:49.512Z,-4.07
2017-08-24T06:38:43.577Z,-4.07
2017-08-24T06:39:32.606Z,-4.07
2017-08-24T06:40:27.729Z,-4.07
2017-08-24T06:41:16.651Z,-4.07
2017-08-24T06:42:05.628Z,-4.07
2017-08-24T06:42:59.733Z,-4.07
2017-08-24T06:43:53.804Z,-4.07
2017-08-24T06:44:47.820Z,-4.07
2017-08-24T06:45:41.833Z,-4.07
2017-08-24T06:46:30.921Z,-4.07
2017-08-24T06:47:18.946Z,-4.07
2017-08-24T06:48:12.969Z,-4.07
2017-08-24T06:49:07.041Z,-4.08
2017-08-24T06:50:02.048Z,-4.08
2017-08-24T06:51:02.091Z,-4.08
2017-08-24T06:51:56.196Z,-4.07
2017-08-24T06:52:56.355Z,-4.07
2017-08-24T06:53:45.259Z,-4.08
2017-08-24T06:54:39.345Z,-4.08
2017-08-24T06:55:40.407Z,-4.08
2017-08-24T06:56:28.456Z,-4.08
2017-08-24T06:57:22.567Z,-4.07
2017-08-24T06:58:16.486Z,-4.07
2017-08-24T06:59:10.511Z,-4.07
2017-08-24T07:00:05.570Z,-4.07
2017-08-24T07:00:54.589Z,-4.08
2017-08-24T07:01:48.654Z,-4.07
2017-08-24T07:02:43.766Z,-4.07
2017-08-24T07:03:37.804Z,-4.07
2017-08-24T07:04:32.783Z,-4.08
2017-08-24T07:05:21.862Z,-4.08
2017-08-24T07:06:21.878Z,-4.08
2017-08-24T07:07:15.843Z,-4.08
2017-08-24T07:08:09.928Z,-4.07
2017-08-24T07:08:59.105Z,-4.07
2017-08-24T07:09:53.122Z,-4.07
2017-08-24T07:10:53.117Z,-4.07
2017-08-24T07:11:41.115Z,-4.08
2017-08-24T07:12:41.139Z,-4.08
2017-08-24T07:13:29.264Z,-4.08
2017-08-24T07:14:24.324Z,-4.08
2017-08-24T07:15:18.352Z,-4.08
2017-08-24T07:16:06.324Z,-4.08
2017-08-24T07:17:00.451Z,-4.08
2017-08-24T07:17:49.481Z,-4.07
2017-08-24T07:18:38.500Z,-4.07
2017-08-24T07:19:33.568Z,-4.07
2017-08-24T07:20:27.655Z,-4.07
2017-08-24T07:21:21.699Z,-4.07
2017-08-24T07:22:15.722Z,-4.07
2017-08-24T07:23:16.832Z,-4.07
2017-08-24T07:24:17.800Z,-4.07
2017-08-24T07:25:12.217Z,-4.07
2017-08-24T07:26:05.895Z,-4.08
2017-08-24T07:27:00.967Z,-4.08
2017-08-24T07:28:00.967Z,-4.08
2017-08-24T07:28:56.079Z,-4.08
2017-08-24T07:29:56.080Z,-4.08
2017-08-24T07:30:51.161Z,-4.07
2017-08-24T07:31:46.063Z,-4.07
2017-08-24T07:32:40.106Z,-4.08
2017-08-24T07:33:40.174Z,-4.08
2017-08-24T07:34:34.294Z,-4.08
2017-08-24T07:35:28.357Z,-4.08
2017-08-24T07:36:17.416Z,-4.07
2017-08-24T07:37:12.470Z,-4.08
2017-08-24T07:38:06.410Z,-4.08
2017-08-24T07:39:01.538Z,-4.08
2017-08-24T07:39:50.534Z,-4.08
2017-08-24T07:40:45.608Z,-4.07
2017-08-24T07:41:33.686Z,-4.07
2017-08-24T07:42:33.724Z,-4.07
2017-08-24T07:43:28.662Z,-4.07
2017-08-24T07:44:17.791Z,-4.07
2017-08-24T07:45:11.861Z,-4.08
2017-08-24T07:46:06.851Z,-4.08
2017-08-24T07:46:54.952Z,-4.08
2017-08-24T07:47:49.909Z,-4.08
2017-08-24T07:48:51.058Z,-4.08
2017-08-24T07:49:40.032Z,-4.08
2017-08-24T07:50:35.082Z,-4.08
2017-08-24T07:51:36.148Z,-4.07
2017-08-24T07:52:36.281Z,-4.07
2017-08-24T07:53:31.269Z,-4.07
2017-08-24T07:54:31.295Z,-4.08
2017-08-24T07:55:25.297Z,-4.08
2017-08-24T07:56:14.423Z,-4.08
2017-08-24T07:57:14.415Z,-4.08
2017-08-24T07:58:08.414Z,-4.08
2017-08-24T07:58:56.508Z,-4.08
2017-08-24T07:59:50.486Z,-4.07
2017-08-24T08:00:39.623Z,-4.08
2017-08-24T08:01:33.601Z,-4.08
2017-08-24T08:02:21.691Z,-4.07
2017-08-24T08:03:15.691Z,-4.08
2017-08-24T08:04:09.797Z,-4.07
2017-08-24T08:05:09.886Z,-4.07
2017-08-24T08:05:58.931Z,-4.07
2017-08-24T08:06:52.980Z,-4.08
2017-08-24T08:07:48.046Z,-4.07
2017-08-24T08:08:36.037Z,-4.08
2017-08-24T08:09:36.028Z,-4.08
2017-08-24T08:10:25.136Z,-4.08
2017-08-24T08:11:25.157Z,-4.09
2017-08-24T08:12:20.239Z,-4.08
2017-08-24T08:13:15.329Z,-4.08
2017-08-24T08:14:10.329Z,-4.08
2017-08-24T08:14:59.373Z,-4.08
2017-08-24T08:15:53.430Z,-4.08
2017-08-24T08:16:47.510Z,-4.08
2017-08-24T08:17:36.454Z,-4.08
2017-08-24T08:18:31.561Z,-4.08
2017-08-24T08:19:19.602Z,-4.08
2017-08-24T08:20:08.646Z,-4.08
2017-08-24T08:21:03.694Z,-4.08
2017-08-24T08:22:03.749Z,-4.08
2017-08-24T08:23:03.817Z,-4.08
2017-08-24T08:24:03.823Z,-4.08
2017-08-24T08:24:52.860Z,-4.08
2017-08-24T08:25:41.962Z,-4.08
2017-08-24T08:26:36.914Z,-4.08
2017-08-24T08:27:38.019Z,-4.08
2017-08-24T08:28:38.037Z,-4.08
2017-08-24T08:29:33.049Z,-4.08
2017-08-24T08:30:28.495Z,-4.08
2017-08-24T08:31:17.245Z,-4.08
2017-08-24T08:32:18.208Z,-4.08
2017-08-24T08:33:12.344Z,-4.08
2017-08-24T08:34:00.402Z,-4.08
2017-08-24T08:34:55.440Z,-4.08
2017-08-24T08:35:56.486Z,-4.08
2017-08-24T08:36:50.508Z,-4.07
2017-08-24T08:37:38.574Z,-4.07
2017-08-24T08:38:32.610Z,-4.07
2017-08-24T08:39:26.656Z,-4.05
2017-08-24T08:40:21.661Z,-4.04
2017-08-24T08:41:21.781Z,-4.05
2017-08-24T08:42:16.817Z,-4.05
2017-08-24T08:44:04.269Z,-4.05
2017-08-24T08:45:04.231Z,-4.06
2017-08-24T08:45:58.289Z,-4.05
2017-08-24T08:46:47.369Z,-4.06
2017-08-24T08:47:47.475Z,-4.05
2017-08-24T08:48:36.414Z,-4.05
2017-08-24T08:49:30.496Z,-4.06
2017-08-24T08:50:25.608Z,-4.06
2017-08-24T08:51:19.657Z,-4.07
2017-08-24T08:52:13.639Z,-4.07
2017-08-24T08:53:08.759Z,-4.07
2017-08-24T08:53:57.791Z,-4.07
2017-08-24T08:54:45.892Z,-4.07
2017-08-24T08:55:34.917Z,-4.07
2017-08-24T08:56:28.922Z,-4.06
2017-08-24T08:57:17.985Z,-4.04
2017-08-24T08:58:12.095Z,-4.04
2017-08-24T08:59:00.151Z,-4.05
2017-08-24T09:00:00.212Z,-4.05
2017-08-24T09:00:49.141Z,-4.06
2017-08-24T09:01:50.552Z,-4.06
2017-08-24T09:02:38.381Z,-4.06
2017-08-24T09:03:32.405Z,-4.06
2017-08-24T09:04:33.432Z,-4.06
2017-08-24T09:05:27.450Z,-4.06
2017-08-24T09:06:15.552Z,-4.05
2017-08-24T09:07:15.588Z,-4.06
2017-08-24T09:08:09.593Z,-4.06
2017-08-24T09:09:03.662Z,-4.05
2017-08-24T09:09:58.744Z,-4.04
2017-08-24T09:10:52.859Z,-4.04
2017-08-24T09:11:52.835Z,-4.03
2017-08-24T09:12:46.939Z,-4.02
2017-08-24T09:13:42.022Z,-4.02
2017-08-24T09:14:35.971Z,-4.01
2017-08-24T09:15:23.964Z,-0.46
2017-08-24T09:16:18.081Z,15.93
2017-08-24T09:17:12.129Z,20.85
2017-08-24T09:18:12.230Z,12.36
2017-08-24T09:19:07.412Z,8.91
2017-08-24T09:20:02.321Z,17.62
2017-08-24T09:20:51.382Z,32.00
2017-08-24T09:21:45.490Z,26.33
2017-08-24T09:22:45.534Z,25.09
2017-08-24T09:23:40.589Z,36.89
2017-08-24T09:24:28.699Z,29.36
2017-08-24T09:25:28.733Z,27.11
2017-08-24T09:26:22.755Z,14.62
2017-08-24T09:27:16.763Z,20.43
2017-08-24T09:28:10.876Z,19.56
2017-08-24T09:29:05.893Z,1.74
2017-08-24T09:29:59.966Z,0.50
2017-08-24T09:30:49.040Z,0.93
2017-08-24T09:31:38.097Z,-4.03
2017-08-24T09:32:33.157Z,-4.02
2017-08-24T09:33:21.179Z,-0.00
2017-08-24T09:34:15.190Z,19.42
2017-08-24T09:35:09.392Z,8.96
2017-08-24T09:36:03.384Z,7.88
2017-08-24T09:36:57.387Z,14.94
2017-08-24T09:37:51.551Z,27.72
2017-08-24T09:38:40.628Z,15.16
2017-08-24T09:39:28.604Z,5.86
2017-08-24T09:40:23.725Z,17.64
2017-08-24T09:41:12.741Z,30.91
2017-08-24T09:42:00.817Z,17.19
2017-08-24T09:42:49.877Z,20.88
2017-08-24T09:43:43.974Z,1.40
2017-08-24T09:44:37.985Z,-2.56
2017-08-24T09:45:33.123Z,13.76
2017-08-24T09:46:22.049Z,0.47
2017-08-24T09:47:16.201Z,3.16
2017-08-24T09:48:10.185Z,-1.21
2017-08-24T09:48:59.313Z,-4.03
2017-08-24T09:49:53.313Z,-1.86
2017-08-24T09:50:41.509Z,-4.03
2017-08-24T09:51:41.441Z,-4.02
2017-08-24T09:52:35.549Z,-3.05
2017-08-24T09:53:29.529Z,2.69
2017-08-24T09:54:23.724Z,18.27
2017-08-24T09:55:17.666Z,-3.77
2017-08-24T09:56:17.788Z,8.40
2017-08-24T09:57:12.817Z,16.62
2017-08-24T09:58:07.967Z,17.70
2017-08-24T09:59:02.918Z,7.00
2017-08-24T09:59:57.001Z,4.74
2017-08-24T10:00:46.054Z,15.81
2017-08-24T10:01:40.120Z,-2.08
2017-08-24T10:02:35.090Z,1.69
2017-08-24T10:03:29.138Z,14.57
2017-08-24T10:04:23.272Z,27.40
2017-08-24T10:05:23.347Z,23.04
2017-08-24T10:06:17.352Z,21.77
2017-08-24T10:07:11.689Z,19.55
2017-08-24T10:08:05.428Z,33.48
2017-08-24T10:09:00.500Z,40.62
2017-08-24T10:09:55.556Z,40.24
2017-08-24T10:10:49.611Z,40.09
2017-08-24T10:11:43.649Z,37.39
2017-08-24T10:12:44.831Z,30.95
2017-08-24T10:13:39.781Z,26.26
2017-08-24T10:14:33.875Z,21.97
2017-08-24T10:15:22.982Z,10.94
2017-08-24T10:16:18.005Z,-4.02
2017-08-24T10:17:07.069Z,-4.03
2017-08-24T10:18:02.116Z,-4.03
2017-08-24T10:18:56.211Z,-4.04
2017-08-24T10:19:51.210Z,-4.04
2017-08-24T10:20:40.397Z,-4.04
2017-08-24T10:21:35.277Z,-4.05
2017-08-24T10:22:23.462Z,-4.05
2017-08-24T10:23:11.545Z,-4.06
2017-08-24T10:24:06.586Z,-4.06
2017-08-24T10:25:00.623Z,-4.05
2017-08-24T10:25:48.670Z,-4.06
2017-08-24T10:26:42.723Z,-4.05
2017-08-24T10:27:31.807Z,-4.05
2017-08-24T10:28:32.217Z,-4.03
2017-08-24T10:29:27.389Z,-4.03
2017-08-24T10:30:22.243Z,-4.03
2017-08-24T10:31:22.266Z,-4.03
2017-08-24T10:32:16.051Z,-4.04
2017-08-24T10:33:11.115Z,-4.05
2017-08-24T10:34:11.077Z,-4.05
2017-08-24T10:35:00.187Z,-4.05
2017-08-24T10:35:54.238Z,-4.06
2017-08-24T10:36:54.267Z,-4.05
2017-08-24T10:37:49.439Z,-4.04
2017-08-24T10:38:49.406Z,-4.04
2017-08-24T10:39:49.544Z,-4.04
2017-08-24T10:40:43.537Z,-4.03
2017-08-24T10:41:32.668Z,-4.03
2017-08-24T10:42:26.583Z,-4.03
2017-08-24T10:43:20.646Z,-4.03
2017-08-24T10:44:14.809Z,-4.03
2017-08-24T10:45:09.805Z,-4.03
2017-08-24T10:45:57.857Z,-4.03
2017-08-24T10:46:57.935Z,-4.03
2017-08-24T10:47:45.925Z,-4.03
2017-08-24T10:48:46.067Z,-4.02
2017-08-24T10:49:35.105Z,-1.14
2017-08-24T10:50:24.133Z,3.69
2017-08-24T10:51:19.154Z,-4.03
2017-08-24T10:52:08.212Z,-4.03
2017-08-24T10:53:02.360Z,2.37
2017-08-24T10:53:57.305Z,-4.02
2017-08-24T10:54:46.388Z,5.13
2017-08-24T10:55:34.546Z,4.81
2017-08-24T10:56:28.527Z,11.09
2017-08-24T10:57:22.529Z,2.93
2017-08-24T10:58:11.619Z,-3.21
2017-08-24T10:59:06.698Z,4.29
2017-08-24T11:00:06.737Z,20.89
2017-08-24T11:01:00.882Z,19.05
2017-08-24T11:01:49.008Z,38.26
2017-08-24T11:02:37.961Z,29.03
2017-08-24T11:03:27.000Z,39.89
2017-08-24T11:04:27.117Z,39.89
2017-08-24T11:05:15.170Z,45.86
2017-08-24T11:06:15.283Z,34.99
2017-08-24T11:07:21.351Z,39.28
2017-08-24T11:08:09.343Z,34.31
2017-08-24T11:09:09.574Z,38.05
2017-08-24T11:10:03.524Z,21.06
2017-08-24T11:10:57.624Z,23.75
2017-08-24T11:11:51.673Z,20.28
2017-08-24T11:12:40.805Z,14.58
2017-08-24T11:13:28.863Z,13.89
2017-08-24T11:14:23.803Z,8.76
2017-08-24T11:15:18.911Z,9.45
2017-08-24T11:16:13.052Z,10.84
2017-08-24T11:17:07.036Z,11.67
2017-08-24T11:18:07.322Z,-2.26
2017-08-24T11:19:07.229Z,8.22
2017-08-24T11:20:01.196Z,0.78
2017-08-24T11:20:50.224Z,13.46
2017-08-24T11:21:44.250Z,29.44
2017-08-24T11:22:33.355Z,25.05
2017-08-24T11:23:33.424Z,27.85
2017-08-24T11:24:28.556Z,26.61
2017-08-24T11:25:22.564Z,17.12
2017-08-24T11:26:16.525Z,7.67
2017-08-24T11:27:11.757Z,-0.02
2017-08-24T11:28:00.723Z,-2.41
2017-08-24T11:29:00.730Z,1.89
2017-08-24T11:29:49.800Z,6.52
2017-08-24T11:30:43.804Z,11.75
2017-08-24T11:31:38.891Z,7.06
2017-08-24T11:32:34.020Z,0.38
2017-08-24T11:33:29.018Z,-0.85
2017-08-24T11:34:24.050Z,24.69